Time;durP1;ratioP1;P1;durP2;ratioP2;P2;SDS_P1;SDS_P2;PMS_P1;PMS_P2;Temp;Humidity;BMP_temperature;BMP_pressure;BME280_temperature;BME280_humidity;BME280_pressure;Samples;Min_cycle;Max_cycle;Signal;HPM_P1;HPM_P2
2022/01/08 00:01:55;;;;;;;16.98;9.18;;;2.20;99.90;;;;;;5009741;28;20038;-87
2022/01/08 00:04:21;;;;;;;18.13;9.13;;;2.10;99.90;;;;;;4992752;28;20140;-86
2022/01/08 00:06:46;;;;;;;16.23;8.80;;;2.10;99.90;;;;;;5027011;28;20038;-88
2022/01/08 00:09:12;;;;;;;15.40;8.68;;;2.20;99.90;;;;;;5026988;28;20541;-87
2022/01/08 00:11:41;;;;;;;18.15;10.02;;;2.20;99.90;;;;;;4993722;28;20042;-87
2022/01/08 00:14:09;;;;;;;17.33;9.23;;;2.20;99.90;;;;;;5023984;28;20047;-88
2022/01/08 00:16:35;;;;;;;19.60;10.02;;;2.20;99.90;;;;;;4991914;28;20034;-87
2022/01/08 00:19:00;;;;;;;19.50;10.07;;;2.30;99.90;;;;;;4993710;28;20445;-87
2022/01/08 00:21:26;;;;;;;18.13;9.27;;;2.30;99.90;;;;;;4993427;28;20038;-88
2022/01/08 00:23:51;;;;;;;21.77;10.00;;;2.30;99.90;;;;;;5022348;28;20046;-88
2022/01/08 00:26:17;;;;;;;18.40;10.15;;;2.30;99.90;;;;;;4974463;28;20038;-87
2022/01/08 00:28:43;;;;;;;19.00;10.45;;;2.30;99.90;;;;;;4990348;28;20049;-87
2022/01/08 00:31:10;;;;;;;19.70;10.38;;;2.30;99.90;;;;;;4974598;28;20089;-87
2022/01/08 00:33:39;;;;;;;20.42;11.05;;;2.30;99.90;;;;;;4990115;28;20034;-87
2022/01/08 00:36:06;;;;;;;20.98;10.95;;;2.30;99.90;;;;;;4990528;28;20097;-87
2022/01/08 00:38:32;;;;;;;21.92;11.57;;;2.30;99.90;;;;;;5006849;28;20121;-88
2022/01/08 00:40:57;;;;;;;18.33;11.18;;;2.40;99.90;;;;;;5006564;28;20138;-88
2022/01/08 00:43:23;;;;;;;20.13;11.48;;;2.40;99.90;;;;;;4973949;28;20043;-88
2022/01/08 00:45:49;;;;;;;22.50;12.50;;;2.40;99.90;;;;;;5006582;28;20050;-88
2022/01/08 00:48:14;;;;;;;21.17;12.02;;;2.40;99.90;;;;;;4974106;28;20038;-88
2022/01/08 00:50:40;;;;;;;22.95;12.82;;;2.50;99.90;;;;;;5006377;28;20088;-88
2022/01/08 00:53:06;;;;;;;21.25;12.35;;;2.50;99.90;;;;;;5006437;28;20111;-88
2022/01/08 00:55:31;;;;;;;21.20;11.95;;;2.50;99.90;;;;;;5006576;28;20049;-88
2022/01/08 00:57:57;;;;;;;20.98;13.63;;;2.50;99.90;;;;;;4974027;28;20484;-88
2022/01/08 01:00:23;;;;;;;23.15;12.45;;;2.50;99.90;;;;;;4975950;28;20741;-87
2022/01/08 01:02:49;;;;;;;22.95;13.05;;;2.50;99.90;;;;;;4977127;28;20038;-87
2022/01/08 01:05:14;;;;;;;21.75;13.20;;;2.50;99.90;;;;;;5012380;28;20034;-88
2022/01/08 01:07:40;;;;;;;26.80;12.73;;;2.50;99.90;;;;;;5012848;28;20439;-87
2022/01/08 01:10:08;;;;;;;22.60;12.50;;;2.50;99.90;;;;;;4997151;28;20034;-87
2022/01/08 01:12:34;;;;;;;21.77;12.90;;;2.50;99.90;;;;;;5012949;28;20046;-88
2022/01/08 01:15:00;;;;;;;23.75;12.85;;;2.50;99.90;;;;;;4996581;28;20088;-88
2022/01/08 01:17:25;;;;;;;20.67;11.90;;;2.50;99.90;;;;;;5012906;28;20046;-87
2022/01/08 01:19:51;;;;;;;23.23;13.23;;;2.40;99.90;;;;;;4995663;28;20042;-87
2022/01/08 01:22:20;;;;;;;23.23;12.65;;;2.40;99.90;;;;;;5012806;28;20057;-88
2022/01/08 01:24:48;;;;;;;22.55;12.90;;;2.40;99.90;;;;;;5010756;28;20046;-88
2022/01/08 01:27:54;;;;;;;23.25;14.48;;;2.40;99.90;;;;;;5012798;28;20061;-87
2022/01/08 01:30:25;;;;;;;;;;;2.40;99.90;;;;;;5012788;28;20041;-87
2022/01/08 01:49:19;;;;;;;18.95;12.48;;;2.00;99.90;;;;;;4993094;28;20050;-87
2022/01/08 01:51:45;;;;;;;22.67;12.60;;;2.00;99.90;;;;;;4992872;28;20058;-87
2022/01/08 01:54:12;;;;;;;21.73;12.68;;;2.00;99.90;;;;;;4979742;28;20030;-87
2022/01/08 01:56:38;;;;;;;18.08;11.90;;;1.90;99.90;;;;;;4996231;28;20058;-87
2022/01/08 01:59:04;;;;;;;21.42;11.70;;;1.90;99.90;;;;;;5012011;28;20176;-87
2022/01/08 02:01:30;;;;;;;22.42;13.73;;;1.90;99.90;;;;;;5028075;28;20041;-87
2022/01/08 02:03:56;;;;;;;19.48;11.70;;;1.80;99.90;;;;;;5028079;28;20038;-87
2022/01/08 02:06:22;;;;;;;20.25;12.57;;;1.80;99.90;;;;;;4992145;28;20042;-87
2022/01/08 02:08:47;;;;;;;20.80;12.63;;;1.80;99.90;;;;;;4992721;28;20045;-87
2022/01/08 02:11:15;;;;;;;22.30;12.48;;;1.80;99.90;;;;;;4992152;28;20603;-87
2022/01/08 02:13:41;;;;;;;21.80;13.57;;;1.80;99.90;;;;;;4998636;28;20113;-87
2022/01/08 02:16:16;;;;;;;21.15;13.07;;;1.80;99.90;;;;;;4997178;28;20129;-87
2022/01/08 02:18:46;;;;;;;24.52;12.73;;;1.70;99.90;;;;;;4976255;28;20063;-87
2022/01/08 02:21:12;;;;;;;22.77;13.00;;;1.70;99.90;;;;;;4975980;28;20046;-87
2022/01/08 02:23:43;;;;;;;21.35;13.52;;;1.70;99.90;;;;;;4992481;28;20133;-87
2022/01/08 02:26:10;;;;;;;21.65;12.63;;;1.70;99.90;;;;;;4992213;28;20050;-87
2022/01/08 02:28:40;;;;;;;20.60;13.52;;;1.60;99.90;;;;;;4975804;28;20492;-87
2022/01/08 02:31:07;;;;;;;21.65;12.55;;;1.60;99.90;;;;;;4992467;28;20050;-87
2022/01/08 02:33:33;;;;;;;21.95;11.75;;;1.60;99.90;;;;;;4991919;28;20046;-87
2022/01/08 02:36:05;;;;;;;18.85;10.77;;;1.60;99.90;;;;;;4976018;28;20042;-87
2022/01/08 02:38:30;;;;;;;16.75;9.77;;;1.60;99.90;;;;;;5008067;28;20042;-87
2022/01/08 02:41:00;;;;;;;17.05;9.43;;;1.60;99.90;;;;;;4991264;28;20073;-87
2022/01/08 02:43:28;;;;;;;17.52;9.15;;;1.60;99.90;;;;;;4991774;28;20122;-87
2022/01/08 02:45:54;;;;;;;18.35;9.80;;;1.70;99.90;;;;;;5010617;28;20035;-87
2022/01/08 02:48:20;;;;;;;15.57;9.35;;;1.70;99.90;;;;;;4995125;28;20567;-87
2022/01/08 02:50:46;;;;;;;17.42;9.23;;;1.70;99.90;;;;;;5011559;28;20129;-87
2022/01/08 02:53:12;;;;;;;19.90;10.43;;;1.70;99.90;;;;;;4994928;28;20049;-87
2022/01/08 02:55:37;;;;;;;21.35;9.52;;;1.80;99.90;;;;;;5010884;28;20038;-87
2022/01/08 02:58:03;;;;;;;18.00;9.52;;;1.80;99.90;;;;;;4994821;28;20037;-87
2022/01/08 03:00:30;;;;;;;13.90;8.23;;;1.80;99.90;;;;;;5010500;28;20038;-87
2022/01/08 03:02:55;;;;;;;17.48;9.48;;;1.80;99.90;;;;;;5011045;28;20052;-87
2022/01/08 03:05:21;;;;;;;16.85;9.50;;;1.80;99.90;;;;;;4999888;28;20046;-87
2022/01/08 03:07:47;;;;;;;14.45;8.45;;;1.70;99.90;;;;;;4991179;28;20038;-87
2022/01/08 03:10:16;;;;;;;17.73;9.20;;;1.70;99.90;;;;;;4975315;28;20053;-87
2022/01/08 03:12:42;;;;;;;17.00;8.63;;;1.70;99.90;;;;;;5002629;28;20746;-86
2022/01/08 03:15:14;;;;;;;15.65;7.55;;;1.70;99.90;;;;;;4994218;28;20041;-87
2022/01/08 03:17:40;;;;;;;15.68;8.32;;;1.70;99.90;;;;;;4991068;28;20072;-87
2022/01/08 03:20:10;;;;;;;18.58;9.60;;;1.70;99.90;;;;;;4990796;28;20046;-87
2022/01/08 03:22:37;;;;;;;14.38;7.88;;;1.70;99.90;;;;;;4990281;28;20057;-87
2022/01/08 03:25:04;;;;;;;16.85;8.30;;;1.60;99.90;;;;;;4990854;28;20422;-87
2022/01/08 03:27:29;;;;;;;15.88;8.98;;;1.60;99.90;;;;;;4990950;28;20042;-87
2022/01/08 03:29:55;;;;;;;16.02;8.60;;;1.60;99.90;;;;;;4975119;28;20042;-87
2022/01/08 03:32:21;;;;;;;14.13;7.95;;;1.60;99.90;;;;;;4991132;28;20492;-87
2022/01/08 03:34:47;;;;;;;16.92;9.18;;;1.50;99.90;;;;;;4974851;28;20133;-87
2022/01/08 03:37:13;;;;;;;16.30;8.90;;;1.50;99.90;;;;;;5007719;28;20631;-87
2022/01/08 03:39:38;;;;;;;14.70;8.30;;;1.50;99.90;;;;;;5007013;28;20412;-87
2022/01/08 03:42:04;;;;;;;16.25;8.90;;;1.50;99.90;;;;;;4990670;28;20070;-87
2022/01/08 03:44:30;;;;;;;15.15;9.05;;;1.50;99.90;;;;;;4974626;28;20511;-87
2022/01/08 03:47:21;;;;;;;15.25;8.18;;;1.40;99.90;;;;;;4974235;28;20041;-87
2022/01/08 03:49:44;;;;;;;15.50;8.15;;;1.40;99.90;;;;;;4990676;28;20043;-87
2022/01/08 03:52:12;;;;;;;14.10;8.00;;;1.40;99.90;;;;;;5007217;28;20092;-87
2022/01/08 03:54:38;;;;;;;15.43;9.27;;;1.30;99.90;;;;;;5010067;28;20034;-87
2022/01/08 03:57:04;;;;;;;18.00;9.05;;;1.30;99.90;;;;;;4994282;28;20391;-87
2022/01/08 03:59:30;;;;;;;17.17;8.25;;;1.30;99.90;;;;;;5010390;28;20046;-87
2022/01/08 04:01:55;;;;;;;16.83;9.50;;;1.30;99.90;;;;;;5009540;28;20034;-87
2022/01/08 04:04:21;;;;;;;17.17;9.38;;;1.30;99.90;;;;;;5007836;28;20045;-87
2022/01/08 04:06:46;;;;;;;17.48;8.60;;;1.30;99.90;;;;;;4974375;28;20046;-87
2022/01/08 04:09:13;;;;;;;21.88;10.77;;;1.30;99.90;;;;;;4990610;28;20039;-87
2022/01/08 04:11:39;;;;;;;19.90;9.05;;;1.40;99.90;;;;;;4974419;28;20046;-87
2022/01/08 04:14:04;;;;;;;19.52;10.80;;;1.40;99.90;;;;;;4983567;28;20438;-86
2022/01/08 04:16:33;;;;;;;20.77;9.88;;;1.40;99.90;;;;;;4993838;28;20038;-86
2022/01/08 04:18:59;;;;;;;19.85;10.77;;;1.40;99.90;;;;;;4990589;28;20034;-87
2022/01/08 04:23:51;;;;;;;19.75;10.70;;;1.50;99.90;;;;;;4990173;28;20132;-87
2022/01/08 04:26:17;;;;;;;18.25;10.43;;;1.50;99.90;;;;;;5001720;28;20120;-87
2022/01/08 04:28:43;;;;;;;17.27;9.73;;;1.50;99.90;;;;;;5010318;28;20125;-87
2022/01/08 04:31:08;;;;;;;19.17;9.75;;;1.40;99.90;;;;;;5026425;28;20042;-87
2022/01/08 04:33:34;;;;;;;19.75;10.00;;;1.40;99.90;;;;;;4995652;28;20034;-87
2022/01/08 04:35:59;;;;;;;18.58;10.68;;;1.40;99.90;;;;;;5014256;28;20519;-87
2022/01/08 04:38:25;;;;;;;22.33;12.10;;;1.40;99.90;;;;;;5014317;28;20065;-86
2022/01/08 04:40:51;;;;;;;16.77;10.25;;;1.40;99.90;;;;;;5013277;28;20034;-87
2022/01/08 04:43:16;;;;;;;18.30;10.70;;;1.40;99.90;;;;;;4996591;28;20069;-87
2022/01/08 04:45:43;;;;;;;18.92;10.43;;;1.30;99.90;;;;;;5012223;28;20831;-86
2022/01/08 04:48:08;;;;;;;23.42;12.05;;;1.30;99.90;;;;;;5011742;28;20037;-87
2022/01/08 04:50:34;;;;;;;19.25;9.98;;;1.30;99.90;;;;;;5013706;28;20041;-87
2022/01/08 04:53:00;;;;;;;19.98;11.32;;;1.30;99.90;;;;;;5013594;28;20443;-87
2022/01/08 04:55:26;;;;;;;19.27;11.10;;;1.30;99.90;;;;;;5013250;28;20049;-87
2022/01/08 04:57:52;;;;;;;20.10;10.00;;;1.30;99.90;;;;;;4981302;28;20070;-87
2022/01/08 05:00:20;;;;;;;19.85;11.27;;;1.30;99.90;;;;;;5010142;28;20451;-87
2022/01/08 05:02:46;;;;;;;20.63;11.05;;;1.30;99.90;;;;;;4976860;28;20038;-87
2022/01/08 05:05:12;;;;;;;24.98;12.75;;;1.30;99.90;;;;;;5009449;28;20049;-87
2022/01/08 05:07:38;;;;;;;19.88;11.38;;;1.20;99.90;;;;;;5009479;28;20117;-87
2022/01/08 05:10:05;;;;;;;16.50;10.65;;;1.20;99.90;;;;;;5010012;28;20081;-87
2022/01/08 05:12:31;;;;;;;18.48;10.80;;;1.20;99.90;;;;;;5010066;28;20043;-87
2022/01/08 05:14:57;;;;;;;20.45;10.75;;;1.20;99.90;;;;;;5012406;28;20562;-87
2022/01/08 05:17:30;;;;;;;20.55;10.95;;;1.20;99.90;;;;;;4996320;28;20080;-87
2022/01/08 05:19:58;;;;;;;20.52;9.80;;;1.20;99.90;;;;;;5012971;28;20076;-87
2022/01/08 05:22:27;;;;;;;20.98;10.20;;;1.20;99.90;;;;;;5012664;28;20046;-87
2022/01/08 05:24:53;;;;;;;18.13;9.60;;;1.20;99.90;;;;;;4996506;28;20065;-87
2022/01/08 05:27:19;;;;;;;16.08;10.00;;;1.20;99.90;;;;;;5009368;28;20499;-87
2022/01/08 05:29:46;;;;;;;21.10;9.50;;;1.20;99.90;;;;;;4993312;28;20039;-87
2022/01/08 05:32:18;;;;;;;19.95;9.82;;;1.20;99.90;;;;;;4993340;28;20154;-87
2022/01/08 05:34:46;;;;;;;19.40;8.20;;;1.20;99.90;;;;;;4992911;28;20045;-87
2022/01/08 05:37:12;;;;;;;14.23;8.27;;;1.20;99.90;;;;;;4993270;28;20253;-87
2022/01/08 05:39:38;;;;;;;15.00;7.88;;;1.20;99.90;;;;;;5012127;28;20076;-87
2022/01/08 05:42:04;;;;;;;18.08;8.80;;;1.20;99.90;;;;;;5012033;28;20096;-87
2022/01/08 05:44:30;;;;;;;19.92;8.88;;;1.20;99.90;;;;;;5011056;28;20076;-87
2022/01/08 05:46:56;;;;;;;17.50;9.02;;;1.20;99.90;;;;;;4995959;28;20038;-87
2022/01/08 05:49:21;;;;;;;16.58;8.57;;;1.20;99.90;;;;;;5008577;28;20416;-87
2022/01/08 05:51:47;;;;;;;19.58;7.82;;;1.10;99.90;;;;;;5012653;28;20037;-87
2022/01/08 05:54:12;;;;;;;14.25;8.43;;;1.10;99.90;;;;;;4995782;28;20576;-86
2022/01/08 05:56:38;;;;;;;14.40;8.23;;;1.00;99.90;;;;;;4995399;28;20034;-87
2022/01/08 05:59:04;;;;;;;17.67;7.82;;;1.10;99.90;;;;;;4995964;28;20411;-87
2022/01/08 06:01:31;;;;;;;14.30;8.07;;;1.10;99.90;;;;;;5011960;28;20499;-87
2022/01/08 06:03:57;;;;;;;15.95;7.13;;;1.10;99.90;;;;;;4995138;28;20046;-87
2022/01/08 06:06:23;;;;;;;17.15;8.23;;;1.10;99.90;;;;;;5028334;28;20048;-87
2022/01/08 06:08:48;;;;;;;16.45;7.88;;;1.10;99.90;;;;;;4992976;28;20049;-87
2022/01/08 06:11:14;;;;;;;16.40;8.10;;;1.10;99.90;;;;;;4992635;28;20410;-87
2022/01/08 06:13:39;;;;;;;17.50;7.88;;;1.10;99.90;;;;;;4992034;28;20042;-87
2022/01/08 06:16:05;;;;;;;16.13;8.23;;;1.10;99.90;;;;;;4992589;28;20089;-87
2022/01/08 06:18:31;;;;;;;16.17;8.05;;;1.10;99.90;;;;;;5006497;28;20061;-86
2022/01/08 06:20:59;;;;;;;17.52;8.75;;;1.10;99.90;;;;;;4995702;28;20045;-87
2022/01/08 06:23:27;;;;;;;18.65;8.52;;;1.00;99.90;;;;;;5011023;28;20038;-87
2022/01/08 06:25:53;;;;;;;16.85;7.90;;;1.00;99.90;;;;;;4995080;28;20048;-87
2022/01/08 06:28:19;;;;;;;15.50;8.13;;;1.00;99.90;;;;;;5001938;28;20038;-87
2022/01/08 06:30:45;;;;;;;19.80;8.77;;;1.00;99.90;;;;;;4976086;28;20070;-87
2022/01/08 06:33:10;;;;;;;21.00;8.02;;;1.00;99.90;;;;;;4991959;28;20042;-87
2022/01/08 06:35:36;;;;;;;14.88;8.13;;;1.00;99.90;;;;;;4992367;28;20078;-87
2022/01/08 06:38:01;;;;;;;17.15;9.60;;;1.00;99.90;;;;;;4995650;28;20039;-87
2022/01/08 06:40:27;;;;;;;15.43;8.70;;;1.00;99.90;;;;;;5011713;28;20039;-87
2022/01/08 06:42:53;;;;;;;16.17;8.93;;;1.00;99.90;;;;;;5010774;28;20042;-87
2022/01/08 06:45:18;;;;;;;18.33;8.45;;;1.00;99.90;;;;;;5011254;28;20571;-87
2022/01/08 06:47:45;;;;;;;16.27;8.18;;;1.00;99.90;;;;;;4994617;28;20120;-87
2022/01/08 06:50:11;;;;;;;15.50;8.93;;;0.90;99.90;;;;;;4993594;28;20101;-88
2022/01/08 06:52:38;;;;;;;20.50;8.73;;;0.90;99.90;;;;;;4992472;28;20050;-87
2022/01/08 06:55:04;;;;;;;18.00;8.68;;;0.90;99.90;;;;;;4991800;28;20421;-87
2022/01/08 06:57:30;;;;;;;16.60;7.93;;;0.90;99.90;;;;;;4974658;28;20038;-87
2022/01/08 06:59:55;;;;;;;18.98;8.77;;;0.90;99.90;;;;;;4975757;28;20034;-87
2022/01/08 07:02:21;;;;;;;15.60;8.15;;;0.90;99.90;;;;;;4991238;28;20038;-87
2022/01/08 07:04:47;;;;;;;19.10;9.52;;;0.90;99.90;;;;;;4974369;28;20132;-87
2022/01/08 07:07:12;;;;;;;19.38;8.45;;;0.90;99.90;;;;;;4991539;28;20062;-87
2022/01/08 07:09:38;;;;;;;13.63;7.57;;;0.90;99.90;;;;;;4991592;28;20053;-87
2022/01/08 07:12:04;;;;;;;17.38;7.50;;;0.90;99.90;;;;;;4987019;28;20049;-86
2022/01/08 07:14:29;;;;;;;17.50;8.05;;;0.80;99.90;;;;;;5009249;28;20088;-87
2022/01/08 07:16:55;;;;;;;16.60;8.70;;;0.80;99.90;;;;;;5010975;28;20646;-86
2022/01/08 07:19:21;;;;;;;15.50;8.60;;;0.80;99.90;;;;;;5009635;28;20108;-87
2022/01/08 07:21:46;;;;;;;18.67;8.18;;;0.80;99.90;;;;;;5010336;28;20053;-86
2022/01/08 07:24:12;;;;;;;17.70;8.05;;;0.80;99.90;;;;;;5009832;28;20393;-86
2022/01/08 07:26:38;;;;;;;17.75;8.35;;;0.80;99.90;;;;;;5010304;28;20049;-87
2022/01/08 07:29:03;;;;;;;17.42;8.10;;;0.80;99.90;;;;;;4994241;28;20061;-87
2022/01/08 07:31:29;;;;;;;16.83;8.55;;;0.90;99.90;;;;;;4977201;28;20084;-87
2022/01/08 07:33:54;;;;;;;16.55;8.07;;;0.90;99.90;;;;;;5007169;28;20080;-87
2022/01/08 07:36:20;;;;;;;16.10;7.78;;;0.90;99.90;;;;;;4991368;28;20169;-87
2022/01/08 07:38:47;;;;;;;15.80;8.05;;;0.90;99.90;;;;;;4975017;28;20518;-87
2022/01/08 07:41:13;;;;;;;17.65;8.32;;;0.90;99.90;;;;;;4975980;28;20798;-87
2022/01/08 07:43:39;;;;;;;16.75;8.90;;;0.90;99.90;;;;;;4975021;28;20062;-87
2022/01/08 07:46:05;;;;;;;15.52;8.52;;;1.00;99.90;;;;;;4990745;28;20388;-87
2022/01/08 07:48:31;;;;;;;14.90;7.25;;;1.00;99.90;;;;;;4990396;28;20041;-87
2022/01/08 07:50:57;;;;;;;18.57;8.50;;;0.90;99.90;;;;;;5007304;28;20053;-87
2022/01/08 07:53:22;;;;;;;14.65;7.75;;;0.90;99.90;;;;;;5007014;28;20042;-88
2022/01/08 07:55:48;;;;;;;17.20;7.78;;;0.90;99.90;;;;;;5007137;28;20034;-87
2022/01/08 07:58:13;;;;;;;15.70;7.95;;;0.90;99.90;;;;;;4974627;28;20431;-87
2022/01/08 08:00:39;;;;;;;19.73;8.60;;;0.90;99.90;;;;;;4974856;28;20125;-87
2022/01/08 08:03:04;;;;;;;16.25;8.45;;;0.90;99.90;;;;;;4990303;28;20412;-87
2022/01/08 08:05:31;;;;;;;17.20;8.27;;;1.00;99.90;;;;;;4994536;28;20088;-87
2022/01/08 08:07:57;;;;;;;18.77;8.32;;;1.00;99.90;;;;;;5010653;28;20088;-87
2022/01/08 08:10:25;;;;;;;17.67;8.85;;;1.00;99.90;;;;;;4997178;28;20077;-87
2022/01/08 08:12:53;;;;;;;17.38;9.30;;;1.00;99.90;;;;;;5014087;28;20050;-87
2022/01/08 08:15:20;;;;;;;19.08;9.20;;;1.00;99.90;;;;;;5013224;28;20056;-87
2022/01/08 08:17:46;;;;;;;19.48;9.52;;;1.10;99.90;;;;;;5013703;28;20388;-87
2022/01/08 08:20:12;;;;;;;15.85;9.02;;;1.10;99.90;;;;;;4994421;28;20424;-88
2022/01/08 08:22:39;;;;;;;20.42;9.77;;;1.10;99.90;;;;;;4995277;28;20095;-87
2022/01/08 08:25:06;;;;;;;19.63;9.65;;;1.10;99.90;;;;;;5012969;28;20068;-88
2022/01/08 08:27:31;;;;;;;17.65;9.55;;;1.10;99.90;;;;;;5030323;28;20049;-87
2022/01/08 08:29:58;;;;;;;19.02;9.70;;;1.10;99.90;;;;;;5013736;28;20491;-87
2022/01/08 08:32:23;;;;;;;17.85;9.93;;;1.10;99.90;;;;;;4997897;28;20053;-87
2022/01/08 08:34:51;;;;;;;16.00;9.23;;;1.10;99.90;;;;;;4990388;28;20049;-87
2022/01/08 08:37:17;;;;;;;24.15;11.48;;;1.20;99.90;;;;;;4977709;28;20046;-87
2022/01/08 08:39:42;;;;;;;22.20;10.55;;;1.20;99.90;;;;;;5010857;28;20088;-88
2022/01/08 08:42:08;;;;;;;18.35;10.27;;;1.20;99.90;;;;;;5010536;28;20086;-87
2022/01/08 08:44:34;;;;;;;18.10;10.10;;;1.20;99.90;;;;;;5009993;28;20408;-87
2022/01/08 08:47:00;;;;;;;19.92;10.43;;;1.30;99.90;;;;;;5000394;28;20038;-87
2022/01/08 08:49:26;;;;;;;18.85;9.52;;;1.30;99.90;;;;;;5013279;28;20132;-87
2022/01/08 08:51:53;;;;;;;20.60;10.50;;;1.40;99.90;;;;;;4996924;28;20045;-86
2022/01/08 08:54:19;;;;;;;18.90;10.57;;;1.40;99.90;;;;;;5017332;28;20042;-86
2022/01/08 08:56:45;;;;;;;18.95;11.13;;;1.50;99.90;;;;;;5013728;28;20089;-87
2022/01/08 08:59:11;;;;;;;17.38;10.32;;;1.50;99.90;;;;;;5013193;28;20499;-87
2022/01/08 09:01:37;;;;;;;21.17;11.95;;;1.60;99.90;;;;;;4997165;28;20041;-87
2022/01/08 09:04:03;;;;;;;24.17;11.45;;;1.60;99.90;;;;;;5012180;28;20053;-87
2022/01/08 09:06:30;;;;;;;20.55;12.10;;;1.60;99.90;;;;;;4996673;28;20095;-87
2022/01/08 09:08:56;;;;;;;18.42;10.70;;;1.60;99.90;;;;;;5013851;28;20038;-86
2022/01/08 09:11:21;;;;;;;21.98;10.80;;;1.70;99.90;;;;;;4996747;28;20562;-87
2022/01/08 09:13:47;;;;;;;18.13;11.25;;;1.70;99.90;;;;;;4996429;28;20045;-87
2022/01/08 09:16:13;;;;;;;20.77;12.77;;;1.70;99.90;;;;;;5012668;28;20042;-87
2022/01/08 09:18:39;;;;;;;19.48;11.48;;;1.70;99.90;;;;;;4996781;28;20099;-87
2022/01/08 09:21:05;;;;;;;22.10;12.90;;;1.80;99.90;;;;;;4995545;28;20034;-86
2022/01/08 09:23:31;;;;;;;22.40;10.75;;;1.80;99.90;;;;;;5012739;28;20143;-86
2022/01/08 09:25:58;;;;;;;20.63;10.50;;;1.90;99.90;;;;;;4995936;28;20507;-87
2022/01/08 09:28:24;;;;;;;19.15;10.70;;;1.90;99.90;;;;;;5012690;28;20046;-87
2022/01/08 09:30:50;;;;;;;19.77;10.77;;;2.00;99.90;;;;;;5006013;28;20408;-86
2022/01/08 09:33:16;;;;;;;19.90;11.63;;;2.00;99.90;;;;;;5014448;28;20117;-86
2022/01/08 09:35:42;;;;;;;18.02;11.43;;;2.10;99.90;;;;;;5015383;28;20037;-87
2022/01/08 09:38:07;;;;;;;18.50;11.18;;;2.10;99.90;;;;;;5029841;28;20065;-87
2022/01/08 09:40:33;;;;;;;19.35;11.82;;;2.10;99.90;;;;;;5031947;28;20510;-87
2022/01/08 09:42:59;;;;;;;21.08;12.13;;;2.20;99.90;;;;;;5025122;28;20068;-87
2022/01/08 09:45:24;;;;;;;21.42;11.65;;;2.20;99.90;;;;;;5011043;28;20524;-87
2022/01/08 09:47:50;;;;;;;21.67;13.05;;;2.20;99.90;;;;;;5011884;28;20046;-87
2022/01/08 09:50:17;;;;;;;17.38;10.50;;;2.20;99.90;;;;;;4994458;28;20042;-87
2022/01/08 09:52:42;;;;;;;16.67;10.45;;;2.20;99.90;;;;;;5011318;28;20089;-87
2022/01/08 09:55:08;;;;;;;19.20;11.13;;;2.30;99.90;;;;;;4996134;28;20077;-86
2022/01/08 09:57:34;;;;;;;19.83;11.15;;;2.30;99.90;;;;;;4995468;28;20049;-87
2022/01/08 10:00:00;;;;;;;21.38;11.00;;;2.30;99.90;;;;;;4995844;28;20400;-87
2022/01/08 10:02:26;;;;;;;19.25;11.07;;;2.30;99.90;;;;;;5011553;28;20513;-86
2022/01/08 10:04:51;;;;;;;19.50;11.07;;;2.40;99.90;;;;;;4992291;28;20034;-87
2022/01/08 10:07:21;;;;;;;20.98;10.88;;;2.40;99.90;;;;;;4991759;28;20559;-86
2022/01/08 10:09:59;;;;;;;19.73;10.90;;;2.50;99.90;;;;;;4991664;28;20038;-87
2022/01/08 10:12:42;;;;;;;18.63;11.15;;;2.50;99.90;;;;;;4991397;28;20057;-87
2022/01/08 10:17:55;;;;;;;17.15;9.70;;;2.60;99.90;;;;;;5031052;28;20132;-87
2022/01/08 10:20:38;;;;;;;19.55;10.50;;;2.60;99.90;;;;;;5030767;28;20490;-87
2022/01/08 10:23:20;;;;;;;18.27;11.38;;;2.70;99.90;;;;;;5030189;28;20585;-87
2022/01/08 10:26:01;;;;;;;17.17;10.85;;;2.80;99.90;;;;;;5028057;28;20068;-87
2022/01/08 10:28:36;;;;;;;18.42;10.25;;;2.90;99.90;;;;;;5030290;28;20060;-86
2022/01/08 10:31:22;;;;;;;18.85;10.90;;;2.90;99.90;;;;;;5013607;28;20041;-87
2022/01/08 10:34:04;;;;;;;19.55;10.55;;;3.00;99.90;;;;;;5030300;28;20060;-87
2022/01/08 10:36:36;;;;;;;20.45;10.35;;;3.10;99.90;;;;;;5011731;28;20061;-87
2022/01/08 10:39:20;;;;;;;18.13;10.57;;;3.10;99.90;;;;;;5010835;28;20040;-87
2022/01/08 10:41:48;;;;;;;20.90;11.27;;;3.20;99.90;;;;;;5005085;28;20056;-87
2022/01/08 10:44:20;;;;;;;16.50;10.10;;;3.30;99.90;;;;;;5010209;28;20372;-87
2022/01/08 10:46:59;;;;;;;17.48;10.32;;;3.30;99.90;;;;;;4989935;28;20204;-87
2022/01/08 10:49:35;;;;;;;20.42;10.25;;;3.30;99.90;;;;;;4990967;28;20050;-87
2022/01/08 10:52:13;;;;;;;18.42;9.77;;;3.30;99.90;;;;;;5002820;28;20042;-87
2022/01/08 10:54:41;;;;;;;19.17;10.00;;;3.40;99.90;;;;;;4994988;28;20044;-87
2022/01/08 10:57:08;;;;;;;17.25;9.82;;;3.40;99.90;;;;;;5012131;28;20412;-87
2022/01/08 10:59:36;;;;;;;21.00;10.07;;;3.40;99.90;;;;;;5027897;28;20033;-87
2022/01/08 11:02:05;;;;;;;19.83;9.52;;;3.50;99.90;;;;;;4995006;28;20099;-87
2022/01/08 11:04:43;;;;;;;17.92;9.45;;;3.50;99.90;;;;;;5023338;28;20048;-88
2022/01/08 11:07:30;;;;;;;17.35;9.60;;;3.60;99.90;;;;;;5007152;28;20041;-87
2022/01/08 11:10:04;;;;;;;19.45;10.75;;;3.60;99.90;;;;;;5013633;28;20067;-87
2022/01/08 11:12:40;;;;;;;20.67;10.73;;;3.60;99.90;;;;;;5026871;28;20116;-87
2022/01/08 11:17:49;;;;;;;21.10;10.15;;;3.80;99.90;;;;;;5010701;28;20085;-87
2022/01/08 11:20:22;;;;;;;20.60;10.82;;;3.80;99.90;;;;;;5010946;28;20034;-87
2022/01/08 11:22:49;;;;;;;;;;;3.80;99.90;;;;;;4994813;28;20463;-88
2022/01/08 11:25:15;;;;;;;18.73;10.23;;;3.80;99.90;;;;;;5010138;28;20012;-87
2022/01/08 11:27:46;;;;;;;25.70;11.75;;;3.80;99.90;;;;;;5022307;28;20045;-87
2022/01/08 11:30:36;;;;;;;18.55;10.38;;;3.80;99.90;;;;;;5030157;28;20088;-86
2022/01/08 11:33:09;;;;;;;17.27;10.05;;;3.80;99.90;;;;;;5018543;28;20061;-87
2022/01/08 11:35:37;;;;;;;21.38;11.20;;;3.80;99.90;;;;;;5013614;28;20130;-88
2022/01/08 11:38:07;;;;;;;18.10;11.13;;;3.80;99.90;;;;;;5028780;28;20059;-87
2022/01/08 11:40:34;;;;;;;20.40;13.10;;;3.80;99.90;;;;;;5030649;28;20045;-87
2022/01/08 11:43:02;;;;;;;23.02;12.27;;;3.80;99.90;;;;;;5029755;28;20045;-87
2022/01/08 11:45:34;;;;;;;19.73;12.45;;;3.90;99.90;;;;;;5013332;28;20402;-87
2022/01/08 11:48:03;;;;;;;22.55;13.27;;;3.90;99.90;;;;;;5011902;28;20056;-88
2022/01/08 11:50:31;;;;;;;22.70;13.48;;;3.90;99.90;;;;;;5013280;28;20041;-88
2022/01/08 11:53:12;;;;;;;20.33;14.23;;;3.90;99.90;;;;;;5012861;28;20041;-88
2022/01/08 11:55:37;;;;;;;23.50;13.65;;;3.90;99.90;;;;;;4974549;28;20046;-87
2022/01/08 11:58:14;;;;;;;24.77;13.85;;;4.00;99.90;;;;;;4975045;28;20514;-88
2022/01/08 12:00:55;;;;;;;21.30;14.88;;;4.00;99.90;;;;;;4990872;28;20117;-89
2022/01/08 12:03:38;;;;;;;27.08;14.48;;;4.00;99.90;;;;;;5017780;28;20033;-87
2022/01/08 12:06:22;;;;;;;24.95;16.05;;;4.00;99.90;;;;;;5029412;28;20091;-87
2022/01/08 12:11:44;;;;;;;20.58;13.32;;;4.10;99.90;;;;;;5044596;28;20045;-87
2022/01/08 12:14:18;;;;;;;23.00;14.73;;;4.00;99.90;;;;;;5017396;28;20121;-87
2022/01/08 12:16:46;;;;;;;20.60;14.13;;;4.00;99.90;;;;;;5010134;28;20069;-88
2022/01/08 12:19:35;;;;;;;22.88;16.17;;;4.00;99.90;;;;;;5010044;28;20048;-88
2022/01/08 12:22:16;;;;;;;21.27;14.95;;;4.00;99.90;;;;;;5022089;28;20402;-88
2022/01/08 12:24:43;;;;;;;23.23;15.43;;;4.00;99.90;;;;;;5029252;28;20128;-89
2022/01/08 12:27:40;;;;;;;26.48;17.10;;;3.90;99.90;;;;;;5029218;28;20517;-88
2022/01/08 12:30:18;;;;;;;22.08;16.00;;;4.00;99.90;;;;;;5029717;28;20045;-88
2022/01/08 12:32:47;;;;;;;25.13;16.52;;;3.90;99.90;;;;;;5013371;28;20045;-88
2022/01/08 12:35:18;;;;;;;27.98;17.63;;;3.90;99.90;;;;;;4993786;28;20042;-89
2022/01/08 12:37:50;;;;;;;27.42;19.13;;;3.90;99.90;;;;;;4993449;28;20056;-88
2022/01/08 12:40:37;;;;;;;32.90;19.58;;;3.90;99.90;;;;;;5009844;28;20488;-88
2022/01/08 12:43:27;;;;;;;28.15;20.38;;;3.90;99.90;;;;;;4989296;28;20037;-88
2022/01/08 12:46:09;;;;;;;29.65;20.75;;;3.90;99.90;;;;;;4988964;28;20041;-88
2022/01/08 12:48:35;;;;;;;29.77;19.25;;;3.80;99.90;;;;;;4990724;28;20041;-88
2022/01/08 12:51:05;;;;;;;29.85;19.88;;;3.80;99.90;;;;;;4992296;28;20072;-88
2022/01/08 12:53:32;;;;;;;30.08;21.38;;;3.80;99.90;;;;;;5010527;28;20100;-88
2022/01/08 12:55:58;;;;;;;29.58;20.27;;;3.80;99.90;;;;;;4996068;28;20125;-88
2022/01/08 12:58:30;;;;;;;28.92;20.88;;;3.80;99.90;;;;;;5013060;28;20125;-88
2022/01/08 13:01:05;;;;;;;30.77;18.15;;;3.80;99.90;;;;;;4996882;28;20091;-88
2022/01/08 13:03:39;;;;;;;32.38;19.40;;;3.80;99.90;;;;;;5015491;28;20056;-88
2022/01/08 13:06:19;;;;;;;30.30;20.38;;;3.80;99.90;;;;;;4991974;28;20034;-87
2022/01/08 13:08:47;;;;;;;30.05;19.23;;;3.80;99.90;;;;;;5012911;28;20046;-88
2022/01/08 13:11:21;;;;;;;32.90;19.73;;;3.90;99.90;;;;;;5002800;28;20049;-88
2022/01/08 13:13:50;;;;;;;28.20;18.13;;;3.80;99.90;;;;;;5016162;28;20045;-88